createdAt,value
2023-03-29T00:01:43.086Z,97425.66
2023-03-29T00:04:19.266Z,97415.53
2023-03-29T00:06:46.559Z,97411.59
2023-03-29T00:09:16.160Z,97409.94
2023-03-29T00:11:42.812Z,97425.44
2023-03-29T00:14:09.423Z,97436.81
2023-03-29T00:16:36.045Z,97441.97
2023-03-29T00:19:02.938Z,97438.06
2023-03-29T00:21:29.531Z,97433.28
2023-03-29T00:23:56.842Z,97426.66
2023-03-29T00:26:23.545Z,97435.16
2023-03-29T00:28:50.190Z,97426.03
2023-03-29T00:31:17.185Z,97435.56
2023-03-29T00:33:43.957Z,97426.88
2023-03-29T00:36:11.183Z,97429.16
2023-03-29T00:38:38.182Z,97435.78
2023-03-29T00:41:05.253Z,97421.13
2023-03-29T00:43:31.926Z,97419.88
2023-03-29T00:45:58.560Z,97421.09
2023-03-29T00:48:27.980Z,97403.34
2023-03-29T00:50:56.139Z,97393.03
2023-03-29T00:53:47.169Z,97397.16
2023-03-29T00:56:40.069Z,97393.63
2023-03-29T00:59:11.923Z,97398.81
2023-03-29T01:01:52.041Z,97397.56
2023-03-29T01:04:26.170Z,97400.25
2023-03-29T01:06:59.691Z,97394.44
2023-03-29T01:09:26.473Z,97368.44
2023-03-29T01:11:54.783Z,97389.69
2023-03-29T01:14:58.567Z,97374.81
2023-03-29T01:17:25.612Z,97353.78
2023-03-29T01:20:31.937Z,97378.16
2023-03-29T01:23:07.544Z,97364.72
2023-03-29T01:25:46.215Z,97362.25
2023-03-29T01:28:23.234Z,97372.75
2023-03-29T01:31:04.694Z,97369.06
2023-03-29T01:33:33.051Z,97354.81
2023-03-29T01:36:01.511Z,97358.69
2023-03-29T01:38:30.887Z,97357.91
2023-03-29T01:40:57.570Z,97359.34
2023-03-29T01:43:53.024Z,97347.75
2023-03-29T01:46:32.677Z,97354.16
2023-03-29T01:49:13.032Z,97352.13
2023-03-29T01:51:42.208Z,97367.59
2023-03-29T01:54:15.410Z,97400.03
2023-03-29T01:56:42.435Z,97415.94
2023-03-29T01:59:12.017Z,97407.88
2023-03-29T02:01:43.436Z,97400.84
2023-03-29T02:04:11.662Z,97406.22
2023-03-29T02:06:38.333Z,97393.25
2023-03-29T02:09:05.033Z,97397.16
2023-03-29T02:11:31.702Z,97372.78
2023-03-29T02:13:58.375Z,97371.50
2023-03-29T02:16:25.061Z,97377.91
2023-03-29T02:18:51.748Z,97380.63
2023-03-29T02:21:46.590Z,97366.34
2023-03-29T02:24:13.280Z,97373.19
2023-03-29T02:26:39.915Z,97376.50
2023-03-29T02:29:06.555Z,97387.84
2023-03-29T02:31:39.091Z,97375.03
2023-03-29T02:34:06.920Z,97362.22
2023-03-29T02:36:39.123Z,97381.66
2023-03-29T02:39:05.796Z,97397.56
2023-03-29T02:41:32.480Z,97391.38
2023-03-29T02:43:59.121Z,97391.38
2023-03-29T02:46:25.782Z,97389.72
2023-03-29T02:48:52.632Z,97389.47
2023-03-29T02:51:22.478Z,97385.16
2023-03-29T02:53:53.285Z,97375.03
2023-03-29T02:56:20.326Z,97368.00
2023-03-29T02:58:46.983Z,97389.72
2023-03-29T03:01:13.665Z,97399.66
2023-03-29T03:03:40.382Z,97397.34
2023-03-29T03:06:07.093Z,97385.16
2023-03-29T03:08:33.686Z,97380.59
2023-03-29T03:11:00.547Z,97375.25
2023-03-29T03:13:27.380Z,97377.31
2023-03-29T03:15:54.015Z,97373.16
2023-03-29T03:18:20.651Z,97353.75
2023-03-29T03:20:59.395Z,97355.00
2023-03-29T03:23:26.272Z,97358.09
2023-03-29T03:25:52.959Z,97372.97
2023-03-29T03:28:20.236Z,97379.38
2023-03-29T03:30:46.888Z,97381.22
2023-03-29T03:33:13.529Z,97426.50
2023-03-29T03:35:40.168Z,97420.31
2023-03-29T03:38:06.764Z,97409.97
2023-03-29T03:40:33.377Z,97396.34
2023-03-29T03:43:00.121Z,97383.69
2023-03-29T03:45:26.748Z,97358.91
2023-03-29T03:47:53.482Z,97344.88
2023-03-29T03:50:20.152Z,97343.00
2023-03-29T03:52:46.815Z,97343.41
2023-03-29T03:55:13.450Z,97344.66
2023-03-29T03:57:40.424Z,97353.97
2023-03-29T04:00:07.721Z,97363.06
2023-03-29T04:02:34.375Z,97336.59
2023-03-29T04:05:01.041Z,97353.75
2023-03-29T04:07:27.781Z,97354.16
2023-03-29T04:09:54.376Z,97356.63
2023-03-29T04:12:21.026Z,97346.94
2023-03-29T04:14:47.670Z,97349.84
2023-03-29T04:17:14.251Z,97348.41
2023-03-29T04:19:40.847Z,97362.44
2023-03-29T04:22:07.459Z,97351.88
2023-03-29T04:24:34.071Z,97344.25
2023-03-29T04:27:00.721Z,97354.16
2023-03-29T04:29:27.382Z,97356.22
2023-03-29T04:31:54.450Z,97356.44
2023-03-29T04:34:21.096Z,97349.22
2023-03-29T04:36:47.781Z,97348.78
2023-03-29T04:39:14.400Z,97349.59
2023-03-29T04:41:41.030Z,97345.28
2023-03-29T04:44:07.681Z,97337.06
2023-03-29T04:46:34.360Z,97332.50
2023-03-29T04:49:01.082Z,97352.31
2023-03-29T04:51:27.742Z,97340.34
2023-03-29T04:53:54.506Z,97344.47
2023-03-29T04:56:21.161Z,97342.81
2023-03-29T04:58:47.763Z,97328.16
2023-03-29T05:01:14.349Z,97351.06
2023-03-29T05:03:41.018Z,97348.19
2023-03-29T05:06:09.079Z,97337.66
2023-03-29T05:08:36.203Z,97338.06
2023-03-29T05:11:02.989Z,97332.28
2023-03-29T05:13:29.800Z,97329.38
2023-03-29T05:15:56.463Z,97340.53
2023-03-29T05:18:23.151Z,97328.31
2023-03-29T05:20:51.240Z,97330.41
2023-03-29T05:23:17.820Z,97327.28
2023-03-29T05:25:44.517Z,97331.00
2023-03-29T05:28:11.170Z,97328.78
2023-03-29T05:30:37.829Z,97320.25
2023-03-29T05:33:04.584Z,97327.13
2023-03-29T05:35:31.549Z,97334.75
2023-03-29T05:37:58.224Z,97336.00
2023-03-29T05:40:24.825Z,97334.13
2023-03-29T05:42:51.808Z,97328.34
2023-03-29T05:45:18.715Z,97326.88
2023-03-29T05:47:45.454Z,97327.94
2023-03-29T05:50:12.198Z,97327.28
2023-03-29T05:52:38.869Z,97337.66
2023-03-29T05:55:05.856Z,97342.19
2023-03-29T05:57:32.564Z,97347.97
2023-03-29T05:59:59.249Z,97351.09
2023-03-29T06:02:26.209Z,97350.88
2023-03-29T06:04:52.984Z,97346.06
2023-03-29T06:07:19.655Z,97350.22
2023-03-29T06:09:46.309Z,97362.41
2023-03-29T06:12:12.965Z,97354.94
2023-03-29T06:14:39.694Z,97357.63
2023-03-29T06:17:06.408Z,97343.97
2023-03-29T06:19:33.044Z,97349.09
2023-03-29T06:21:59.692Z,97347.47
2023-03-29T06:24:26.311Z,97356.13
2023-03-29T06:26:52.958Z,97367.28
2023-03-29T06:29:19.653Z,97369.78
2023-03-29T06:31:46.379Z,97371.78
2023-03-29T06:34:13.068Z,97362.25
2023-03-29T06:36:39.660Z,97367.81
2023-03-29T06:39:06.253Z,97373.56
2023-03-29T06:41:32.849Z,97370.84
2023-03-29T06:43:59.762Z,97382.03
2023-03-29T06:46:26.500Z,97380.97
2023-03-29T06:48:53.189Z,97380.91
2023-03-29T06:51:21.902Z,97375.13
2023-03-29T06:53:49.878Z,97374.06
2023-03-29T06:56:16.481Z,97383.19
2023-03-29T06:58:43.162Z,97378.34
2023-03-29T07:01:09.772Z,97378.50
2023-03-29T07:03:36.355Z,97361.91
2023-03-29T07:06:03.450Z,97367.25
2023-03-29T07:08:30.172Z,97376.13
2023-03-29T07:10:56.774Z,97377.50
2023-03-29T07:13:23.424Z,97378.03
2023-03-29T07:15:50.142Z,97386.34
2023-03-29T07:18:16.758Z,97399.81
2023-03-29T07:20:43.365Z,97402.69
2023-03-29T07:23:10.187Z,97397.91
2023-03-29T07:25:37.067Z,97407.00
2023-03-29T07:28:03.892Z,97418.00
2023-03-29T07:30:32.393Z,97412.56
2023-03-29T07:32:59.380Z,97413.78
2023-03-29T07:35:26.373Z,97415.84
2023-03-29T07:37:52.972Z,97415.34
2023-03-29T07:40:19.840Z,97419.41
2023-03-29T07:42:46.464Z,97426.66
2023-03-29T07:45:13.465Z,97424.38
2023-03-29T07:47:40.948Z,97421.66
2023-03-29T07:50:08.402Z,97410.47
2023-03-29T07:52:36.259Z,97407.31
2023-03-29T07:55:02.928Z,97408.22
2023-03-29T07:57:29.550Z,97416.31
2023-03-29T07:59:56.202Z,97410.06
2023-03-29T08:02:22.830Z,97410.22
2023-03-29T08:04:49.647Z,97423.72
2023-03-29T08:07:18.905Z,97415.63
2023-03-29T08:09:45.693Z,97413.75
2023-03-29T08:12:12.396Z,97415.72
2023-03-29T08:14:39.050Z,97418.19
2023-03-29T08:17:05.944Z,97429.94
2023-03-29T08:19:32.603Z,97438.41
2023-03-29T08:21:59.932Z,97433.75
2023-03-29T08:24:26.570Z,97437.88
2023-03-29T08:26:53.176Z,97435.72
2023-03-29T08:29:19.856Z,97440.66
2023-03-29T08:31:46.538Z,97432.72
2023-03-29T08:34:13.679Z,97421.53
2023-03-29T08:36:40.358Z,97420.41
2023-03-29T08:39:07.064Z,97420.72
2023-03-29T08:41:47.249Z,97425.69
2023-03-29T08:44:35.203Z,97425.03
2023-03-29T08:47:33.308Z,97421.88
2023-03-29T08:49:59.965Z,97416.03
2023-03-29T08:52:54.440Z,97426.03
2023-03-29T08:55:27.292Z,97426.03
2023-03-29T08:57:53.984Z,97426.31
2023-03-29T09:00:40.265Z,97433.13
2023-03-29T09:03:21.465Z,97441.69
2023-03-29T09:05:49.611Z,97433.31
2023-03-29T09:08:17.219Z,97428.06
2023-03-29T09:10:48.917Z,97430.88
2023-03-29T09:13:23.020Z,97423.97
2023-03-29T09:15:59.013Z,97429.72
2023-03-29T09:18:57.927Z,97429.25
2023-03-29T09:21:39.543Z,97424.19
2023-03-29T09:24:28.192Z,97427.00
2023-03-29T09:27:07.849Z,97425.75
2023-03-29T09:29:40.489Z,97428.34
2023-03-29T09:32:13.814Z,97426.00
2023-03-29T09:34:43.528Z,97425.28
2023-03-29T09:37:18.763Z,97426.00
2023-03-29T09:39:45.379Z,97428.69
2023-03-29T09:42:12.041Z,97431.28
2023-03-29T09:44:49.626Z,97435.88
2023-03-29T09:47:34.612Z,97431.72
2023-03-29T09:50:14.028Z,97438.28
2023-03-29T09:52:47.725Z,97441.38
2023-03-29T09:55:14.731Z,97426.44
2023-03-29T09:57:41.618Z,97430.66
2023-03-29T10:00:08.608Z,97427.84
2023-03-29T10:02:35.272Z,97422.44
2023-03-29T10:05:04.342Z,97428.88
2023-03-29T10:07:37.090Z,97422.75
2023-03-29T10:10:06.834Z,97416.78
2023-03-29T10:12:33.553Z,97416.44
2023-03-29T10:15:00.293Z,97426.56
2023-03-29T10:17:28.545Z,97423.00
2023-03-29T10:20:07.495Z,97413.03
2023-03-29T10:22:36.588Z,97422.22
2023-03-29T10:25:03.838Z,97421.72
2023-03-29T10:27:31.749Z,97425.25
2023-03-29T10:29:59.130Z,97413.63
2023-03-29T10:32:30.606Z,97415.38
2023-03-29T10:35:07.783Z,97407.84
2023-03-29T10:37:34.503Z,97411.59
2023-03-29T10:40:01.193Z,97405.75
2023-03-29T10:42:27.790Z,97413.28
2023-03-29T10:44:55.785Z,97408.66
2023-03-29T10:47:22.484Z,97416.44
2023-03-29T10:49:58.947Z,97421.13
2023-03-29T10:52:25.736Z,97424.44
2023-03-29T10:54:53.858Z,97424.53
2023-03-29T10:57:50.564Z,97403.59
2023-03-29T11:00:40.568Z,97386.31
2023-03-29T11:03:25.283Z,97401.69
2023-03-29T11:06:04.330Z,97410.13
2023-03-29T11:08:57.964Z,97402.16
2023-03-29T11:11:45.301Z,97402.75
2023-03-29T11:14:14.861Z,97378.41
2023-03-29T11:17:03.616Z,97390.41
2023-03-29T11:19:44.399Z,97405.53
2023-03-29T11:22:24.381Z,97394.38
2023-03-29T11:25:00.120Z,97387.66
2023-03-29T11:27:32.765Z,97384.47
2023-03-29T11:30:30.291Z,97379.47
2023-03-29T11:33:09.196Z,97386.28
2023-03-29T11:35:58.024Z,97401.41
2023-03-29T11:38:36.674Z,97399.28
2023-03-29T11:41:22.873Z,97390.38
2023-03-29T11:43:57.488Z,97389.31
2023-03-29T11:46:29.472Z,97374.09
2023-03-29T11:49:20.986Z,97392.09
2023-03-29T11:52:24.392Z,97397.53
2023-03-29T11:55:04.691Z,97393.00
2023-03-29T11:57:36.456Z,97392.22
2023-03-29T12:00:21.598Z,97392.31
2023-03-29T12:03:02.402Z,97386.56
2023-03-29T12:05:56.766Z,97378.53
2023-03-29T12:08:29.378Z,97367.38
2023-03-29T12:11:02.196Z,97341.88
2023-03-29T12:13:34.736Z,97344.81
2023-03-29T12:16:06.804Z,97359.88
2023-03-29T12:18:41.300Z,97346.16
2023-03-29T12:21:21.707Z,97333.78
2023-03-29T12:23:48.456Z,97328.66
2023-03-29T12:26:23.973Z,97319.56
2023-03-29T12:29:38.233Z,97332.22
2023-03-29T12:32:29.313Z,97321.97
2023-03-29T12:35:02.838Z,97319.97
2023-03-29T12:38:05.146Z,97319.84
2023-03-29T12:40:57.115Z,97329.47
2023-03-29T12:43:34.059Z,97324.06
2023-03-29T12:46:16.884Z,97327.22
2023-03-29T12:48:44.446Z,97328.78
2023-03-29T12:51:15.381Z,97321.81
2023-03-29T12:53:43.737Z,97319.72
2023-03-29T12:56:14.600Z,97320.78
2023-03-29T12:58:59.574Z,97318.41
2023-03-29T13:01:34.090Z,97315.09
2023-03-29T13:04:00.648Z,97317.28
2023-03-29T13:06:32.263Z,97307.78
2023-03-29T13:09:04.070Z,97305.75
2023-03-29T13:11:39.523Z,97316.69
2023-03-29T13:14:13.036Z,97311.59
2023-03-29T13:16:39.632Z,97304.72
2023-03-29T13:19:24.821Z,97295.00
2023-03-29T13:22:15.583Z,97289.84
2023-03-29T13:24:46.221Z,97293.75
2023-03-29T13:27:37.016Z,97291.91
2023-03-29T13:30:26.542Z,97292.69
2023-03-29T13:33:11.873Z,97270.00
2023-03-29T13:35:57.752Z,97267.75
2023-03-29T13:38:27.657Z,97268.50
2023-03-29T13:40:54.177Z,97266.25
2023-03-29T13:43:22.892Z,97266.63
2023-03-29T13:45:58.165Z,97269.97
2023-03-29T13:48:37.316Z,97261.84
2023-03-29T13:51:19.094Z,97269.44
2023-03-29T13:53:58.555Z,97263.50
2023-03-29T13:56:27.136Z,97261.91
2023-03-29T13:58:55.540Z,97253.59
2023-03-29T14:01:35.497Z,97252.28
2023-03-29T14:04:02.153Z,97252.84
2023-03-29T14:06:33.239Z,97251.69
2023-03-29T14:09:02.605Z,97236.38
2023-03-29T14:11:29.668Z,97238.03
2023-03-29T14:13:57.620Z,97236.75
2023-03-29T14:16:31.213Z,97237.28
2023-03-29T14:19:34.552Z,97229.13
2023-03-29T14:22:01.613Z,97231.69
2023-03-29T14:24:35.061Z,97218.63
2023-03-29T14:27:02.507Z,97211.00
2023-03-29T14:29:35.426Z,97212.59
2023-03-29T14:32:12.053Z,97222.63
2023-03-29T14:34:39.361Z,97219.03
2023-03-29T14:37:06.435Z,97209.22
2023-03-29T14:39:33.480Z,97214.19
2023-03-29T14:42:00.204Z,97214.16
2023-03-29T14:44:30.968Z,97208.16
2023-03-29T14:46:57.628Z,97207.88
2023-03-29T14:49:24.278Z,97207.28
2023-03-29T14:51:50.878Z,97208.31
2023-03-29T14:54:27.744Z,97202.22
2023-03-29T14:56:54.692Z,97191.69
2023-03-29T14:59:29.470Z,97187.34
2023-03-29T15:01:56.103Z,97190.09
2023-03-29T15:04:22.773Z,97182.78
2023-03-29T15:06:49.443Z,97179.78
2023-03-29T15:09:36.274Z,97186.59
2023-03-29T15:12:03.000Z,97175.44
2023-03-29T15:14:32.962Z,97174.03
2023-03-29T15:17:04.663Z,97175.00
2023-03-29T15:19:31.384Z,97170.91
2023-03-29T15:21:59.355Z,97169.84
2023-03-29T15:24:31.346Z,97162.00
2023-03-29T15:27:05.500Z,97162.50
2023-03-29T15:29:42.430Z,97161.19
2023-03-29T15:32:32.823Z,97156.25
2023-03-29T15:35:04.233Z,97147.78
2023-03-29T15:37:31.184Z,97151.31
2023-03-29T15:39:58.076Z,97146.94
2023-03-29T15:42:25.007Z,97148.81
2023-03-29T15:44:55.185Z,97138.09
2023-03-29T15:47:21.795Z,97139.19
2023-03-29T15:49:48.408Z,97136.00
2023-03-29T15:52:15.188Z,97131.03
2023-03-29T15:54:41.798Z,97132.56
2023-03-29T15:57:13.508Z,97127.91
2023-03-29T15:59:40.217Z,97128.91
2023-03-29T16:02:06.957Z,97120.69
2023-03-29T16:04:33.753Z,97110.28
2023-03-29T16:07:00.397Z,97114.34
2023-03-29T16:09:27.045Z,97108.91
2023-03-29T16:11:53.690Z,97110.88
2023-03-29T16:14:21.162Z,97107.91
2023-03-29T16:16:47.895Z,97096.78
2023-03-29T16:19:14.611Z,97103.34
2023-03-29T16:21:41.609Z,97099.53
2023-03-29T16:24:18.652Z,97101.38
2023-03-29T16:26:45.830Z,97097.59
2023-03-29T16:29:12.611Z,97095.94
2023-03-29T16:31:39.355Z,97102.69
2023-03-29T16:34:06.009Z,97098.53
2023-03-29T16:36:32.688Z,97094.69
2023-03-29T16:38:59.566Z,97092.44
2023-03-29T16:41:26.315Z,97089.47
2023-03-29T16:43:53.198Z,97081.03
2023-03-29T16:46:19.863Z,97079.59
2023-03-29T16:48:46.512Z,97079.03
2023-03-29T16:51:13.124Z,97077.38
2023-03-29T16:53:39.772Z,97074.38
2023-03-29T16:56:06.905Z,97071.81
2023-03-29T16:58:33.609Z,97081.59
2023-03-29T17:01:09.980Z,97078.78
2023-03-29T17:03:37.162Z,97076.63
2023-03-29T17:06:04.659Z,97078.66
2023-03-29T17:08:31.880Z,97067.50
2023-03-29T17:10:58.577Z,97063.63
2023-03-29T17:13:25.332Z,97067.31
2023-03-29T17:15:52.868Z,97073.84
2023-03-29T17:18:20.284Z,97082.72
2023-03-29T17:20:46.961Z,97083.38
2023-03-29T17:23:13.738Z,97081.22
2023-03-29T17:25:40.496Z,97077.53
2023-03-29T17:28:07.105Z,97076.22
2023-03-29T17:30:34.521Z,97071.28
2023-03-29T17:33:01.254Z,97077.16
2023-03-29T17:35:28.247Z,97070.84
2023-03-29T17:37:54.905Z,97069.44
2023-03-29T17:40:21.885Z,97074.31
2023-03-29T17:42:48.610Z,97071.75
2023-03-29T17:45:15.699Z,97064.44
2023-03-29T17:47:42.370Z,97066.56
2023-03-29T17:50:09.925Z,97075.78
2023-03-29T17:52:36.676Z,97071.53
2023-03-29T17:55:03.411Z,97064.06
2023-03-29T17:57:30.034Z,97059.06
2023-03-29T17:59:56.679Z,97055.56
2023-03-29T18:02:24.386Z,97055.72
2023-03-29T18:04:51.208Z,97065.31
2023-03-29T18:07:18.011Z,97065.22
2023-03-29T18:09:44.742Z,97067.84
2023-03-29T18:12:11.437Z,97070.41
2023-03-29T18:14:38.213Z,97060.34
2023-03-29T18:17:04.879Z,97057.63
2023-03-29T18:19:31.557Z,97068.59
2023-03-29T18:21:58.199Z,97075.31
2023-03-29T18:24:25.009Z,97080.41
2023-03-29T18:26:51.644Z,97083.41
2023-03-29T18:29:18.303Z,97089.00
2023-03-29T18:31:45.073Z,97088.03
2023-03-29T18:34:12.004Z,97077.78
2023-03-29T18:36:38.616Z,97069.72
2023-03-29T18:39:05.279Z,97058.28
2023-03-29T18:41:35.402Z,97053.22
2023-03-29T18:44:02.147Z,97064.44
2023-03-29T18:46:28.893Z,97062.63
2023-03-29T18:48:56.037Z,97070.19
2023-03-29T18:51:22.873Z,97069.72
2023-03-29T18:53:49.530Z,97068.38
2023-03-29T18:56:16.414Z,97073.72
2023-03-29T18:58:43.061Z,97076.66
2023-03-29T19:01:09.892Z,97077.56
2023-03-29T19:03:36.791Z,97086.88
2023-03-29T19:06:03.846Z,97080.88
2023-03-29T19:08:30.815Z,97092.97
2023-03-29T19:11:01.304Z,97093.22
2023-03-29T19:13:27.970Z,97100.66
2023-03-29T19:15:54.772Z,97085.50
2023-03-29T19:18:21.509Z,97088.19
2023-03-29T19:20:49.539Z,97091.97
2023-03-29T19:23:16.307Z,97091.97
2023-03-29T19:25:42.982Z,97091.47
2023-03-29T19:28:09.820Z,97096.00
2023-03-29T19:30:36.514Z,97100.31
2023-03-29T19:33:03.141Z,97089.97
2023-03-29T19:35:29.890Z,97099.91
2023-03-29T19:37:56.509Z,97102.59
2023-03-29T19:40:23.165Z,97107.59
2023-03-29T19:42:49.989Z,97101.97
2023-03-29T19:45:16.660Z,97105.41
2023-03-29T19:47:43.462Z,97092.00
2023-03-29T19:50:10.379Z,97089.56
2023-03-29T19:52:37.006Z,97089.09
2023-03-29T19:55:03.829Z,97087.38
2023-03-29T19:57:30.486Z,97093.38
2023-03-29T19:59:57.229Z,97077.56
2023-03-29T20:02:23.885Z,97080.63
2023-03-29T20:04:50.619Z,97082.13
2023-03-29T20:07:17.274Z,97075.38
2023-03-29T20:09:45.311Z,97071.06
2023-03-29T20:12:12.143Z,97077.88
2023-03-29T20:14:39.069Z,97074.81
2023-03-29T20:17:06.386Z,97071.19
2023-03-29T20:19:33.271Z,97071.72
2023-03-29T20:21:59.906Z,97070.06
2023-03-29T20:24:26.599Z,97076.47
2023-03-29T20:26:53.195Z,97064.66
2023-03-29T20:29:19.866Z,97068.06
2023-03-29T20:31:46.615Z,97066.66
2023-03-29T20:34:13.359Z,97061.63
2023-03-29T20:36:40.035Z,97055.22
2023-03-29T20:39:06.977Z,97056.94
2023-03-29T20:41:33.670Z,97050.50
2023-03-29T20:44:00.422Z,97058.75
2023-03-29T20:46:27.847Z,97063.25
2023-03-29T20:48:54.481Z,97062.19
2023-03-29T20:51:21.988Z,97072.28
2023-03-29T20:53:50.968Z,97067.81
2023-03-29T20:56:20.464Z,97069.47
2023-03-29T20:58:49.366Z,97068.56
2023-03-29T21:01:17.246Z,97061.28
2023-03-29T21:03:46.621Z,97066.69
2023-03-29T21:06:13.391Z,97068.84
2023-03-29T21:08:40.273Z,97066.84
2023-03-29T21:11:06.972Z,97067.63
2023-03-29T21:13:36.919Z,97069.75
2023-03-29T21:16:04.013Z,97063.88
2023-03-29T21:18:31.381Z,97070.94
2023-03-29T21:20:58.562Z,97065.03
2023-03-29T21:23:25.236Z,97065.44
2023-03-29T21:25:52.071Z,97062.22
2023-03-29T21:28:18.679Z,97058.31
2023-03-29T21:30:45.348Z,97048.31
2023-03-29T21:33:12.192Z,97041.47
2023-03-29T21:35:38.812Z,97044.81
2023-03-29T21:38:05.677Z,97045.09
2023-03-29T21:40:32.705Z,97043.44
2023-03-29T21:42:59.921Z,97042.63
2023-03-29T21:45:26.612Z,97039.00
2023-03-29T21:47:53.493Z,97047.44
2023-03-29T21:50:20.584Z,97039.22
2023-03-29T21:52:47.316Z,97040.88
2023-03-29T21:55:13.997Z,97040.22
2023-03-29T21:57:40.661Z,97038.91
2023-03-29T22:00:10.985Z,97046.44
2023-03-29T22:02:38.448Z,97033.16
2023-03-29T22:05:05.612Z,97026.94
2023-03-29T22:07:33.125Z,97022.44
2023-03-29T22:09:59.967Z,97025.28
2023-03-29T22:12:26.834Z,97028.63
2023-03-29T22:14:54.124Z,97022.69
2023-03-29T22:17:20.780Z,97025.22
2023-03-29T22:19:47.433Z,97017.38
2023-03-29T22:22:14.388Z,97010.88
2023-03-29T22:24:41.569Z,97003.03
2023-03-29T22:27:08.286Z,97004.06
2023-03-29T22:29:34.930Z,97003.13
2023-03-29T22:32:01.561Z,97000.41
2023-03-29T22:34:28.240Z,97000.16
2023-03-29T22:36:54.941Z,96993.88
2023-03-29T22:39:21.652Z,96996.06
2023-03-29T22:41:48.327Z,96996.88
2023-03-29T22:44:14.954Z,96994.19
2023-03-29T22:46:41.657Z,96989.91
2023-03-29T22:49:08.301Z,96989.91
2023-03-29T22:51:34.948Z,96986.88
2023-03-29T22:54:01.565Z,96981.13
2023-03-29T22:56:28.208Z,96986.06
2023-03-29T22:58:54.925Z,96979.44
2023-03-29T23:01:21.672Z,96985.41
2023-03-29T23:03:48.309Z,96977.78
2023-03-29T23:06:14.933Z,96975.75
2023-03-29T23:08:41.526Z,96973.94
2023-03-29T23:11:08.188Z,96973.03
2023-03-29T23:13:34.814Z,96976.06
2023-03-29T23:16:01.747Z,96972.97
2023-03-29T23:18:28.864Z,96978.97
2023-03-29T23:20:56.201Z,96963.56
2023-03-29T23:23:23.759Z,96966.09
2023-03-29T23:25:50.932Z,96956.88
2023-03-29T23:28:18.565Z,96945.28
2023-03-29T23:30:45.163Z,96940.56
2023-03-29T23:33:11.868Z,96934.69
2023-03-29T23:35:38.582Z,96925.16
2023-03-29T23:38:05.239Z,96920.09
2023-03-29T23:40:31.922Z,96922.47
2023-03-29T23:42:58.526Z,96924.59
2023-03-29T23:45:25.206Z,96927.13
2023-03-29T23:47:51.896Z,96929.44
2023-03-29T23:50:18.622Z,96926.25
2023-03-29T23:52:45.232Z,96926.25
2023-03-29T23:55:13.330Z,96924.69
2023-03-29T23:57:40.240Z,96915.75
